< < Back
Terminal Aerodrome Forecast


Current Version              Previous Versions:   1  2  3  4  5  6  7  8  9  

Terminal Aerodrome Forecast

825
FTUS42 KJAX 291120
TAFJAX
TAF
KJAX 291120Z 2912/3012 06004KT P6SM VCSH SCT025 BKN100 OVC200
     FM291800 09008KT P6SM VCTS SCT025CB BKN050
     FM300000 08004KT P6SM VCSH SCT025 BKN100 OVC200=



Latest METAR

593
SAUS80 KWBC 292300
MTRJAX
METAR KJAX 292256Z 08006KT 10SM SCT020CB BKN080 BKN180 OVC250 27/23
A3006 RMK AO2 SLP178 CB S MOV NW T02720233


USA.gov is the U.S. government's official web portal to all federal, state and local government web resources and services.